Time;durP1;ratioP1;P1;durP2;ratioP2;P2;SDS_P1;SDS_P2;PMS_P1;PMS_P2;Temp;Humidity;BMP_temperature;BMP_pressure;BME280_temperature;BME280_humidity;BME280_pressure;Samples;Min_cycle;Max_cycle;Signal;HPM_P1;HPM_P2
2024/01/19 00:00:49;;;;;;;6.53;3.03;;;;;;;-1.59;89.95;100286.63;5019342;28;20199;-72
2024/01/19 00:03:16;;;;;;;6.83;4.47;;;;;;;-1.59;90.10;100290.09;5033265;28;20358;-72
2024/01/19 00:05:43;;;;;;;5.17;3.00;;;;;;;-1.55;89.83;100294.38;5026602;28;20221;-71
2024/01/19 00:08:09;;;;;;;4.70;3.57;;;;;;;-1.54;89.45;100295.25;5014586;28;20219;-73
2024/01/19 00:10:36;;;;;;;6.30;3.17;;;;;;;-1.55;89.06;100286.56;5025181;28;20221;-71
2024/01/19 00:13:02;;;;;;;6.13;3.43;;;;;;;-1.51;88.93;100297.81;5020492;28;20238;-72
2024/01/19 00:15:29;;;;;;;6.03;3.10;;;;;;;-1.54;88.96;100295.25;5021922;28;20222;-72
2024/01/19 00:17:56;;;;;;;5.13;3.00;;;;;;;-1.52;88.95;100296.06;5019518;28;22309;-72
2024/01/19 00:20:23;;;;;;;4.13;2.60;;;;;;;-1.54;88.62;100296.09;5024529;28;20209;-72
2024/01/19 00:22:49;;;;;;;3.97;2.67;;;;;;;-1.54;88.97;100306.56;5023010;28;20721;-72
2024/01/19 00:25:16;;;;;;;3.73;2.33;;;;;;;-1.50;88.70;100305.59;5018687;28;20225;-72
2024/01/19 00:27:43;;;;;;;3.20;2.40;;;;;;;-1.54;88.92;100306.56;5014863;28;20199;-72
2024/01/19 00:30:10;;;;;;;5.03;2.73;;;;;;;-1.57;89.97;100318.81;5012736;28;20223;-72
2024/01/19 00:32:36;;;;;;;3.17;2.83;;;;;;;-1.51;90.69;100319.56;5014587;28;20199;-72
2024/01/19 00:35:05;;;;;;;4.77;3.50;;;;;;;-1.51;91.11;100316.94;5017220;28;20217;-72
2024/01/19 00:37:31;;;;;;;4.97;3.60;;;;;;;-1.51;91.87;100323.91;5016276;28;20552;-72
2024/01/19 00:39:58;;;;;;;7.63;4.20;;;;;;;-1.49;92.06;100324.75;5016849;28;20210;-72
2024/01/19 00:42:24;;;;;;;5.27;3.73;;;;;;;-1.48;92.58;100324.72;5016247;28;20237;-72
2024/01/19 00:44:51;;;;;;;7.93;3.77;;;;;;;-1.48;92.74;100334.31;5025621;28;20670;-72
2024/01/19 00:47:17;;;;;;;6.30;3.50;;;;;;;-1.49;92.98;100330.84;5013725;28;20288;-72
2024/01/19 00:49:44;;;;;;;6.40;4.20;;;;;;;-1.44;93.21;100335.97;5014963;28;20229;-72
2024/01/19 00:52:12;;;;;;;4.43;3.60;;;;;;;-1.40;93.42;100333.25;5018407;28;20744;-72
2024/01/19 00:54:39;;;;;;;9.13;4.33;;;;;;;-1.42;93.11;100342.00;5018408;28;20445;-72
2024/01/19 00:57:05;;;;;;;7.47;4.60;;;;;;;-1.47;93.45;100352.56;5012356;28;20230;-72
2024/01/19 00:59:32;;;;;;;7.27;3.87;;;;;;;-1.44;92.62;100339.44;5010155;28;20582;-72
2024/01/19 01:01:58;;;;;;;6.33;4.20;;;;;;;-1.46;92.26;100349.06;5018470;28;20225;-72
2024/01/19 01:04:25;;;;;;;5.57;3.60;;;;;;;-1.46;92.11;100351.69;5015418;28;20214;-72
2024/01/19 01:06:51;;;;;;;7.10;4.20;;;;;;;-1.47;92.11;100363.00;5016296;28;20221;-72
2024/01/19 01:09:19;;;;;;;6.57;4.20;;;;;;;-1.50;92.01;100356.97;5013065;28;20225;-72
2024/01/19 01:11:45;;;;;;;8.27;4.40;;;;;;;-1.51;91.87;100355.25;5014795;28;20209;-72
2024/01/19 01:14:12;;;;;;;6.10;4.90;;;;;;;-1.50;91.82;100363.06;5024291;28;20209;-72
2024/01/19 01:16:38;;;;;;;6.17;3.87;;;;;;;-1.51;92.35;100366.56;5018095;28;20827;-72
2024/01/19 01:19:04;;;;;;;8.03;4.47;;;;;;;-1.49;92.04;100370.00;5015334;28;20570;-72
2024/01/19 01:21:31;;;;;;;9.13;4.20;;;;;;;-1.49;91.92;100363.94;5011437;28;20768;-72
2024/01/19 01:23:57;;;;;;;9.13;5.17;;;;;;;-1.48;91.83;100366.50;5011824;28;20686;-72
2024/01/19 01:26:25;;;;;;;7.33;4.57;;;;;;;-1.47;91.75;100373.47;5017027;28;20227;-72
2024/01/19 01:28:52;;;;;;;7.03;4.67;;;;;;;-1.46;91.56;100369.97;5012893;28;20207;-72
2024/01/19 01:31:18;;;;;;;8.57;5.10;;;;;;;-1.46;91.66;100377.78;5016422;28;20700;-72
2024/01/19 01:33:44;;;;;;;7.23;4.60;;;;;;;-1.46;91.38;100369.97;5015832;28;20617;-72
2024/01/19 01:36:11;;;;;;;7.60;5.17;;;;;;;-1.46;91.44;100383.00;5025110;28;20221;-72
2024/01/19 01:38:37;;;;;;;10.77;5.07;;;;;;;-1.47;91.33;100389.13;5032234;28;20233;-72
2024/01/19 01:41:04;;;;;;;7.80;4.53;;;;;;;-1.43;91.46;100385.53;5029796;28;20211;-72
2024/01/19 01:43:32;;;;;;;8.17;5.40;;;;;;;-1.42;90.91;100387.28;5027257;28;20698;-72
2024/01/19 01:45:58;;;;;;;8.30;4.90;;;;;;;-1.35;90.28;100387.16;5021095;28;20237;-72
2024/01/19 01:48:26;;;;;;;7.37;5.23;;;;;;;-1.37;90.58;100394.16;5024730;28;20252;-72
2024/01/19 01:50:53;;;;;;;9.07;4.63;;;;;;;-1.38;90.67;100393.31;5025835;28;20230;-73
2024/01/19 01:53:21;;;;;;;7.57;5.00;;;;;;;-1.40;90.32;100385.50;5021496;28;20203;-72
2024/01/19 01:55:48;;;;;;;8.60;5.50;;;;;;;-1.41;90.10;100383.78;5025891;28;20225;-72
2024/01/19 01:58:17;;;;;;;6.40;5.50;;;;;;;-1.40;90.16;100390.72;5020403;28;20298;-72
2024/01/19 02:00:46;;;;;;;7.37;5.70;;;;;;;-1.41;90.47;100383.78;5032929;28;20210;-72
2024/01/19 02:03:13;;;;;;;9.50;6.27;;;;;;;-1.38;90.64;100393.31;5018544;28;20733;-73
2024/01/19 02:05:40;;;;;;;8.20;5.83;;;;;;;-1.40;90.82;100400.31;5022455;28;20701;-73
2024/01/19 02:08:06;;;;;;;5.40;4.17;;;;;;;-1.40;91.04;100398.56;5023952;28;20225;-72
2024/01/19 02:10:33;;;;;;;8.07;6.63;;;;;;;-1.38;91.14;100408.13;5022366;28;20287;-72
2024/01/19 02:12:59;;;;;;;8.80;5.97;;;;;;;-1.34;90.91;100409.78;5027231;28;20213;-72
2024/01/19 02:15:27;;;;;;;8.93;6.00;;;;;;;-1.38;91.44;100414.19;5028020;28;20246;-73
2024/01/19 02:17:55;;;;;;;7.90;6.03;;;;;;;-1.35;91.90;100424.59;5022307;28;20210;-72
2024/01/19 02:20:22;;;;;;;10.23;6.20;;;;;;;-1.37;91.42;100420.28;5019760;28;20198;-72
2024/01/19 02:22:49;;;;;;;9.23;5.90;;;;;;;-1.40;91.65;100429.91;5027066;28;20206;-73
2024/01/19 02:25:17;;;;;;;9.63;6.10;;;;;;;-1.40;91.48;100429.91;5027914;28;20214;-73
2024/01/19 02:27:44;;;;;;;6.07;5.23;;;;;;;-1.35;91.81;100418.50;5024921;28;20215;-72
2024/01/19 02:30:11;;;;;;;9.47;5.43;;;;;;;-1.33;91.37;100433.28;5026420;28;20233;-73
2024/01/19 02:32:38;;;;;;;6.57;4.77;;;;;;;-1.33;91.80;100424.56;5022522;28;20206;-72
2024/01/19 02:35:05;;;;;;;10.77;6.13;;;;;;;-1.29;91.24;100424.50;5025649;28;20211;-72
2024/01/19 02:37:32;;;;;;;7.93;5.83;;;;;;;-1.32;91.02;100426.28;5022402;28;20673;-72
2024/01/19 02:40:00;;;;;;;10.10;6.57;;;;;;;-1.27;90.82;100432.31;5018308;28;20198;-72
2024/01/19 02:42:28;;;;;;;8.87;5.93;;;;;;;-1.29;90.97;100423.63;5022472;28;20285;-72
2024/01/19 02:44:54;;;;;;;7.47;5.70;;;;;;;-1.29;90.27;100428.84;5021887;28;20226;-72
2024/01/19 02:47:20;;;;;;;10.33;6.03;;;;;;;-1.30;90.26;100422.78;5021369;28;20226;-72
2024/01/19 02:49:47;;;;;;;8.67;6.10;;;;;;;-1.27;90.07;100429.69;5019089;28;20206;-72
2024/01/19 02:52:13;;;;;;;9.10;5.80;;;;;;;-1.29;90.28;100431.47;5021905;28;20234;-72
2024/01/19 02:54:40;;;;;;;10.80;6.13;;;;;;;-1.28;89.85;100431.44;5017604;28;20213;-72
2024/01/19 02:57:06;;;;;;;9.07;6.40;;;;;;;-1.31;89.96;100430.63;5024777;28;20236;-72
2024/01/19 02:59:34;;;;;;;8.93;6.67;;;;;;;-1.29;90.05;100434.09;5026161;28;20202;-73
2024/01/19 03:02:00;;;;;;;8.33;6.53;;;;;;;-1.30;90.07;100437.59;5027811;28;21464;-72
2024/01/19 03:04:27;;;;;;;9.07;5.60;;;;;;;-1.33;90.01;100430.66;5026926;28;20210;-73
2024/01/19 03:06:55;;;;;;;10.93;5.87;;;;;;;-1.33;90.08;100428.06;5025294;28;20229;-73
2024/01/19 03:09:21;;;;;;;9.13;6.47;;;;;;;-1.33;90.17;100425.44;5022495;28;20235;-72
2024/01/19 03:11:48;;;;;;;8.73;6.07;;;;;;;-1.31;89.90;100434.09;5025303;28;20230;-73
2024/01/19 03:14:14;;;;;;;8.90;6.03;;;;;;;-1.33;89.92;100440.25;5028497;28;20202;-72
2024/01/19 03:16:43;;;;;;;8.97;6.23;;;;;;;-1.32;89.87;100436.75;5023968;28;20219;-73
2024/01/19 03:19:09;;;;;;;9.80;6.17;;;;;;;-1.31;90.26;100435.84;5028758;28;20213;-72
2024/01/19 03:21:36;;;;;;;7.47;6.00;;;;;;;-1.37;90.46;100442.03;5021238;28;20199;-72
2024/01/19 03:24:02;;;;;;;10.20;6.20;;;;;;;-1.39;90.47;100449.03;5026832;28;20213;-72
2024/01/19 03:26:29;;;;;;;8.60;5.87;;;;;;;-1.35;90.85;100455.09;5031795;28;20276;-72
2024/01/19 03:28:56;;;;;;;12.57;6.97;;;;;;;-1.37;90.45;100454.25;5033481;28;20564;-73
2024/01/19 03:31:22;;;;;;;9.57;6.47;;;;;;;-1.38;91.00;100448.16;5032551;28;20598;-73
2024/01/19 03:33:50;;;;;;;10.27;6.97;;;;;;;-1.42;91.03;100455.19;5031476;28;20202;-73
2024/01/19 03:36:16;;;;;;;12.33;7.00;;;;;;;-1.43;91.47;100463.91;5025333;28;20232;-72
2024/01/19 03:38:43;;;;;;;10.07;6.70;;;;;;;-1.41;91.31;100454.28;5032394;28;20198;-73
2024/01/19 03:41:09;;;;;;;11.47;6.73;;;;;;;-1.39;91.55;100464.72;5028299;28;20676;-73
2024/01/19 03:43:36;;;;;;;12.30;7.30;;;;;;;-1.38;91.70;100469.06;5031992;28;20209;-73
2024/01/19 03:46:02;;;;;;;10.27;6.67;;;;;;;-1.38;91.86;100473.41;5028652;28;20392;-72
2024/01/19 03:48:28;;;;;;;11.70;7.40;;;;;;;-1.40;92.35;100476.06;5029786;28;20248;-73
2024/01/19 03:50:56;;;;;;;13.83;8.33;;;;;;;-1.39;92.31;100483.00;5028127;28;20225;-73
2024/01/19 03:53:23;;;;;;;11.10;8.27;;;;;;;-1.41;92.82;100485.63;5034907;28;20211;-72
2024/01/19 03:55:49;;;;;;;14.60;7.97;;;;;;;-1.40;92.81;100478.66;5026345;28;20491;-73
2024/01/19 03:58:16;;;;;;;15.20;9.27;;;;;;;-1.38;92.95;100484.72;5028385;28;20223;-73
2024/01/19 04:00:42;;;;;;;14.30;9.27;;;;;;;-1.40;93.58;100489.13;5030688;28;20201;-72
2024/01/19 04:03:09;;;;;;;12.77;8.50;;;;;;;-1.40;93.89;100489.97;5029838;28;20213;-72
2024/01/19 04:05:35;;;;;;;17.67;9.57;;;;;;;-1.34;94.69;100498.59;5032387;28;20221;-72
2024/01/19 04:08:03;;;;;;;15.07;9.30;;;;;;;-1.33;95.12;100490.75;5027913;28;20219;-72
2024/01/19 04:10:30;;;;;;;12.67;9.27;;;;;;;-1.33;94.85;100489.88;5021009;28;20213;-72
2024/01/19 04:12:56;;;;;;;14.60;10.20;;;;;;;-1.30;94.36;100495.06;5029784;28;20209;-73
2024/01/19 04:15:23;;;;;;;14.33;9.20;;;;;;;-1.28;94.51;100494.16;5028487;28;20206;-72
2024/01/19 04:17:49;;;;;;;12.97;7.97;;;;;;;-1.27;94.47;100488.03;5023601;28;20410;-72
2024/01/19 04:20:16;;;;;;;12.63;9.60;;;;;;;-1.27;93.79;100484.56;5026836;28;20203;-72
2024/01/19 04:22:42;;;;;;;14.53;9.83;;;;;;;-1.26;93.99;100486.28;5027043;28;20229;-73
2024/01/19 04:25:10;;;;;;;12.80;8.30;;;;;;;-1.23;93.43;100480.97;5022639;28;20701;-72
2024/01/19 04:27:37;;;;;;;13.40;8.60;;;;;;;-1.22;92.83;100487.94;5023375;28;20210;-73
2024/01/19 04:30:04;;;;;;;12.40;8.13;;;;;;;-1.20;92.29;100483.53;5031982;28;20220;-73
2024/01/19 04:32:30;;;;;;;10.20;7.60;;;;;;;-1.19;91.91;100488.75;5030431;28;20234;-72
2024/01/19 04:34:57;;;;;;;11.47;8.07;;;;;;;-1.18;91.67;100500.06;5030562;28;20199;-72
2024/01/19 04:37:23;;;;;;;11.00;7.87;;;;;;;-1.15;91.35;100492.16;5032767;28;20245;-72
2024/01/19 04:39:50;;;;;;;13.07;7.97;;;;;;;-1.15;91.32;100484.31;5031150;28;20237;-72
2024/01/19 04:42:17;;;;;;;13.17;9.37;;;;;;;-1.20;91.58;100486.16;5027132;28;20206;-72
2024/01/19 04:44:43;;;;;;;14.13;9.27;;;;;;;-1.17;91.68;100491.34;5027915;28;20206;-72
2024/01/19 04:47:10;;;;;;;14.00;8.57;;;;;;;-1.16;91.98;100488.69;5031834;28;20226;-72
2024/01/19 04:49:36;;;;;;;12.70;8.73;;;;;;;-1.18;92.94;100495.69;5033850;28;20237;-72
2024/01/19 04:52:03;;;;;;;14.90;9.33;;;;;;;-1.18;94.08;100494.84;5030362;28;20721;-73
2024/01/19 04:54:29;;;;;;;15.07;8.53;;;;;;;-1.19;94.68;100493.97;5034145;28;20213;-73
2024/01/19 04:56:56;;;;;;;14.23;8.50;;;;;;;-1.19;95.57;100499.19;5030557;28;20229;-72
2024/01/19 04:59:23;;;;;;;15.40;9.13;;;;;;;-1.17;96.25;100494.81;5033740;28;20198;-72
2024/01/19 05:01:50;;;;;;;10.33;8.30;;;;;;;-1.20;96.51;100502.69;5027618;28;20206;-73
2024/01/19 05:04:16;;;;;;;11.53;8.47;;;;;;;-1.24;96.92;100497.53;5028852;28;20692;-72
2024/01/19 05:06:43;;;;;;;15.17;9.33;;;;;;;-1.26;97.61;100505.44;5032282;28;20723;-73
2024/01/19 05:09:09;;;;;;;13.10;9.37;;;;;;;-1.29;97.66;100507.25;5029838;28;20213;-72
2024/01/19 05:11:36;;;;;;;12.70;9.77;;;;;;;-1.30;97.68;100510.72;5030483;28;20225;-73
2024/01/19 05:14:03;;;;;;;14.77;9.27;;;;;;;-1.29;97.77;100517.69;5029083;28;20218;-73
2024/01/19 05:16:31;;;;;;;12.03;9.07;;;;;;;-1.32;97.77;100515.13;5032975;28;20236;-73
2024/01/19 05:18:57;;;;;;;15.17;9.07;;;;;;;-1.35;98.09;100521.25;5033588;28;20202;-73
2024/01/19 05:21:24;;;;;;;13.20;8.50;;;;;;;-1.35;97.69;100526.47;5030527;28;20213;-72
2024/01/19 05:23:50;;;;;;;12.37;9.10;;;;;;;-1.30;96.95;100529.03;5032615;28;20273;-72
2024/01/19 05:26:17;;;;;;;13.07;9.20;;;;;;;-1.31;96.69;100533.38;5032545;28;20232;-72
2024/01/19 05:28:43;;;;;;;10.93;8.87;;;;;;;-1.32;96.78;100536.03;5034105;28;20213;-73
2024/01/19 05:31:10;;;;;;;9.77;8.27;;;;;;;-1.34;96.29;100528.19;5026863;28;20230;-73
2024/01/19 05:33:39;;;;;;;11.43;8.47;;;;;;;-1.35;96.23;100541.28;5019016;28;20213;-72
2024/01/19 05:36:05;;;;;;;11.67;8.13;;;;;;;-1.36;96.19;100535.19;5024621;28;20241;-73
2024/01/19 05:38:32;;;;;;;12.47;9.07;;;;;;;-1.35;95.97;100539.53;5022042;28;20210;-72
2024/01/19 05:41:01;;;;;;;12.40;7.93;;;;;;;-1.31;95.62;100535.13;5020956;28;20302;-72
2024/01/19 05:43:27;;;;;;;10.87;9.07;;;;;;;-1.30;95.00;100536.84;5030691;28;20206;-72
2024/01/19 05:45:54;;;;;;;12.33;7.60;;;;;;;-1.31;95.06;100538.59;5024432;28;20615;-72
2024/01/19 05:48:20;;;;;;;10.07;8.10;;;;;;;-1.32;95.18;100543.84;5029737;28;20205;-72
2024/01/19 05:50:49;;;;;;;11.07;8.20;;;;;;;-1.29;94.96;100546.44;5029396;28;20201;-73
2024/01/19 05:53:15;;;;;;;14.50;8.50;;;;;;;-1.27;94.60;100540.28;5020343;28;20238;-72
2024/01/19 05:55:43;;;;;;;11.63;7.80;;;;;;;-1.26;94.77;100560.31;5027053;28;20226;-73
2024/01/19 05:58:09;;;;;;;9.80;8.10;;;;;;;-1.30;94.57;100555.16;5028484;28;20214;-73
2024/01/19 06:00:36;;;;;;;11.90;8.60;;;;;;;-1.31;94.41;100562.13;5028642;28;20214;-73
2024/01/19 06:03:02;;;;;;;14.17;8.07;;;;;;;-1.29;94.99;100559.50;5027433;28;20214;-72
2024/01/19 06:05:28;;;;;;;9.83;7.67;;;;;;;-1.29;95.32;100569.94;5029346;28;20257;-72
2024/01/19 06:07:56;;;;;;;15.10;9.20;;;;;;;-1.28;95.28;100572.53;5028161;28;20625;-72
2024/01/19 06:10:23;;;;;;;12.23;8.33;;;;;;;-1.28;95.61;100572.53;5029088;28;20576;-72
2024/01/19 06:12:49;;;;;;;9.50;8.50;;;;;;;-1.25;95.60;100582.03;5027270;28;20600;-72
2024/01/19 06:15:16;;;;;;;8.37;6.43;;;;;;;-1.22;96.07;100585.47;5027707;28;20296;-72
2024/01/19 06:17:42;;;;;;;13.53;8.50;;;;;;;-1.20;95.41;100590.69;5033447;28;20213;-73
2024/01/19 06:20:10;;;;;;;10.60;8.70;;;;;;;-1.23;95.98;100598.56;5033075;28;20214;-73
2024/01/19 06:22:37;;;;;;;12.07;8.77;;;;;;;-1.22;96.25;100595.06;5031849;28;20214;-73
2024/01/19 06:25:05;;;;;;;17.03;10.10;;;;;;;-1.24;96.27;100594.22;5030132;28;20210;-72
2024/01/19 06:27:32;;;;;;;11.87;8.40;;;;;;;-1.23;96.27;100593.34;5026397;28;20636;-72
2024/01/19 06:29:58;;;;;;;19.50;10.33;;;;;;;-1.24;96.54;100596.81;5035183;28;20591;-73
2024/01/19 06:32:25;;;;;;;14.87;10.47;;;;;;;-1.26;96.59;100598.63;5031611;28;20739;-72
2024/01/19 06:34:51;;;;;;;11.57;9.47;;;;;;;-1.25;97.00;100595.97;5036271;28;20415;-72
2024/01/19 06:37:18;;;;;;;11.97;9.47;;;;;;;-1.24;97.04;100602.06;5028280;28;20221;-72
2024/01/19 06:39:46;;;;;;;12.63;9.53;;;;;;;-1.27;96.94;100605.59;5023819;28;20225;-72
2024/01/19 06:42:14;;;;;;;9.63;8.53;;;;;;;-1.29;97.44;100603.91;5030662;28;20692;-72
2024/01/19 06:44:42;;;;;;;12.97;9.80;;;;;;;-1.27;97.53;100616.06;5031571;28;20209;-73
2024/01/19 06:47:09;;;;;;;11.80;9.90;;;;;;;-1.23;97.06;100619.47;5027900;28;20226;-72
2024/01/19 06:49:36;;;;;;;16.57;10.47;;;;;;;-1.25;97.86;100618.63;5022182;28;20240;-72
2024/01/19 06:52:04;;;;;;;14.67;10.87;;;;;;;-1.27;97.54;100628.25;5022952;28;20257;-72
2024/01/19 06:54:32;;;;;;;14.10;11.20;;;;;;;-1.26;97.92;100627.38;5030644;28;20702;-72
2024/01/19 06:56:58;;;;;;;16.20;12.20;;;;;;;-1.29;98.15;100632.63;5022833;28;20276;-72
2024/01/19 06:59:26;;;;;;;16.43;12.30;;;;;;;-1.31;98.38;100637.88;5016744;28;21039;-73
2024/01/19 07:01:52;;;;;;;16.77;12.00;;;;;;;-1.28;98.31;100635.22;5025615;28;20221;-73
2024/01/19 07:04:19;;;;;;;14.73;11.53;;;;;;;-1.29;98.35;100640.47;5021471;28;20216;-73
2024/01/19 07:06:46;;;;;;;18.03;12.23;;;;;;;-1.28;98.76;100652.66;5029831;28;20226;-73
2024/01/19 07:09:13;;;;;;;14.73;12.10;;;;;;;-1.32;98.59;100656.19;5033724;28;20254;-73
2024/01/19 07:11:39;;;;;;;19.83;13.27;;;;;;;-1.36;98.84;100659.72;5024649;28;20244;-73
2024/01/19 07:14:06;;;;;;;17.80;12.80;;;;;;;-1.39;99.25;100647.56;5030217;28;20687;-73
2024/01/19 07:16:34;;;;;;;19.77;14.27;;;;;;;-1.36;99.25;100667.56;5027330;28;20225;-73
2024/01/19 07:19:00;;;;;;;19.77;14.10;;;;;;;-1.34;98.90;100668.41;5034598;28;20214;-73
2024/01/19 07:21:27;;;;;;;18.50;13.50;;;;;;;-1.34;99.16;100682.34;5032308;28;20207;-73
2024/01/19 07:23:53;;;;;;;19.40;12.53;;;;;;;-1.33;99.24;100683.19;5032266;28;20213;-73
2024/01/19 07:26:20;;;;;;;18.20;14.67;;;;;;;-1.35;99.27;100695.44;5026054;28;20227;-73
2024/01/19 07:28:46;;;;;;;21.60;13.60;;;;;;;-1.41;100.00;100692.00;5025137;28;20603;-73
2024/01/19 07:31:13;;;;;;;18.37;13.63;;;;;;;-1.42;99.97;100698.09;5029309;28;20628;-73
2024/01/19 07:33:41;;;;;;;19.80;14.20;;;;;;;-1.41;100.00;100697.22;5031678;28;20713;-73
2024/01/19 07:36:08;;;;;;;17.27;14.00;;;;;;;-1.40;100.00;100706.78;5023486;28;20226;-73
2024/01/19 07:38:34;;;;;;;19.97;13.97;;;;;;;-1.39;100.00;100705.03;5027963;28;20217;-73
2024/01/19 07:41:01;;;;;;;22.57;16.13;;;;;;;-1.39;100.00;100718.09;5029442;28;20218;-73
2024/01/19 07:43:28;;;;;;;19.30;14.97;;;;;;;-1.42;100.00;100726.84;5028650;28;20202;-73
2024/01/19 07:45:54;;;;;;;22.37;15.23;;;;;;;-1.44;100.00;100736.47;5025153;28;20227;-73
2024/01/19 07:48:21;;;;;;;22.73;17.07;;;;;;;-1.43;100.00;100729.47;5024341;28;20705;-73
2024/01/19 07:50:49;;;;;;;25.00;16.83;;;;;;;-1.40;100.00;100725.06;5016474;28;20246;-73
2024/01/19 07:53:15;;;;;;;17.70;14.40;;;;;;;-1.36;100.00;100730.28;5021362;28;20238;-73
2024/01/19 07:55:41;;;;;;;20.20;15.77;;;;;;;-1.33;100.00;100732.84;5019556;28;20234;-73
2024/01/19 07:58:08;;;;;;;22.20;16.20;;;;;;;-1.34;100.00;100724.13;5023038;28;20222;-73
2024/01/19 08:00:34;;;;;;;23.40;15.67;;;;;;;-1.34;100.00;100729.38;5023273;28;20203;-73
2024/01/19 08:03:01;;;;;;;22.50;16.53;;;;;;;-1.33;100.00;100746.78;5024749;28;20670;-73
2024/01/19 08:05:28;;;;;;;23.97;17.07;;;;;;;-1.34;100.00;100742.44;5021424;28;20590;-72
2024/01/19 08:07:56;;;;;;;19.43;14.20;;;;;;;-1.31;100.00;100741.53;5019978;28;20686;-73
2024/01/19 08:10:22;;;;;;;24.60;15.10;;;;;;;-1.33;100.00;100741.53;5025240;28;20209;-73
2024/01/19 08:12:49;;;;;;;24.87;15.60;;;;;;;-1.28;100.00;100744.97;5020547;28;20250;-73
2024/01/19 08:15:15;;;;;;;18.33;14.73;;;;;;;-1.30;100.00;100754.56;5020197;28;20206;-73
2024/01/19 08:17:42;;;;;;;22.30;15.23;;;;;;;-1.31;100.00;100752.84;5020404;28;20221;-73
2024/01/19 08:20:10;;;;;;;18.53;13.83;;;;;;;-1.27;100.00;100757.16;5020965;28;20199;-73
2024/01/19 08:22:37;;;;;;;20.40;13.87;;;;;;;-1.26;100.00;100758.03;5025153;28;20202;-73
2024/01/19 08:25:05;;;;;;;18.17;14.77;;;;;;;-1.19;100.00;100764.88;5023165;28;20205;-73
2024/01/19 08:27:32;;;;;;;18.53;13.50;;;;;;;-1.17;100.00;100786.63;5027357;28;20207;-73
2024/01/19 08:29:58;;;;;;;16.93;13.87;;;;;;;-1.14;100.00;100778.75;5026385;28;20203;-73
2024/01/19 08:32:24;;;;;;;17.90;13.53;;;;;;;-1.11;100.00;100787.41;5030199;28;20248;-73
2024/01/19 08:34:51;;;;;;;19.07;14.17;;;;;;;-1.07;100.00;100793.44;5027514;28;20214;-73
2024/01/19 08:37:17;;;;;;;17.77;13.27;;;;;;;-1.01;100.00;100800.34;5027791;28;20348;-73
2024/01/19 08:39:45;;;;;;;19.77;13.90;;;;;;;-1.00;100.00;100802.94;5022797;28;20666;-73
2024/01/19 08:42:12;;;;;;;19.97;13.87;;;;;;;-0.97;100.00;100807.25;5025728;28;20208;-73
2024/01/19 08:44:43;;;;;;;21.30;13.00;;;;;;;-0.94;100.00;100802.88;5025854;28;20199;-73
2024/01/19 08:47:09;;;;;;;18.10;12.73;;;;;;;-0.91;100.00;100808.06;5028037;28;20221;-73
2024/01/19 08:49:36;;;;;;;19.60;13.27;;;;;;;-0.86;100.00;100805.34;5027987;28;20225;-73
2024/01/19 08:52:03;;;;;;;15.87;12.80;;;;;;;-0.86;100.00;100813.19;5026979;28;20217;-73
2024/01/19 08:54:29;;;;;;;20.67;14.07;;;;;;;-0.84;100.00;100820.13;5027619;28;20205;-73
2024/01/19 08:56:55;;;;;;;26.00;14.83;;;;;;;-0.82;100.00;100820.97;5030945;28;20227;-73
2024/01/19 08:59:24;;;;;;;19.30;13.77;;;;;;;-0.79;100.00;100822.69;5024867;28;20211;-73
2024/01/19 09:01:54;;;;;;;17.27;12.90;;;;;;;-0.75;100.00;100827.88;5027470;28;20219;-73
2024/01/19 09:04:21;;;;;;;14.27;12.53;;;;;;;-0.70;100.00;100836.50;5025244;28;20202;-73
2024/01/19 09:06:47;;;;;;;18.07;12.60;;;;;;;-0.64;100.00;100832.06;5032291;28;20229;-73
2024/01/19 09:09:14;;;;;;;16.87;13.13;;;;;;;-0.59;99.85;100836.34;5030046;28;20205;-73
2024/01/19 09:11:40;;;;;;;18.27;13.97;;;;;;;-0.55;99.48;100838.03;5025524;28;20202;-73
2024/01/19 09:14:09;;;;;;;22.23;13.30;;;;;;;-0.54;99.07;100852.84;5023270;28;20308;-72
2024/01/19 09:16:37;;;;;;;18.67;12.93;;;;;;;-0.52;98.96;100850.19;5023310;28;20218;-73
2024/01/19 09:19:03;;;;;;;17.47;12.33;;;;;;;-0.47;98.87;100862.31;5024230;28;20215;-73
2024/01/19 09:21:30;;;;;;;21.10;13.23;;;;;;;-0.40;98.27;100865.72;5027027;28;20220;-73
2024/01/19 09:23:56;;;;;;;21.27;13.00;;;;;;;-0.41;97.78;100870.09;5029457;28;20206;-73
2024/01/19 09:26:24;;;;;;;18.00;12.33;;;;;;;-0.37;97.53;100865.69;5033451;28;20234;-73
2024/01/19 09:28:51;;;;;;;17.30;12.50;;;;;;;-0.34;96.84;100876.06;5032212;28;20617;-73
2024/01/19 09:31:17;;;;;;;21.03;13.17;;;;;;;-0.32;96.79;100876.06;5024959;28;20203;-73
2024/01/19 09:33:46;;;;;;;16.23;12.93;;;;;;;-0.30;96.31;100880.38;5033546;28;20230;-73
2024/01/19 09:36:12;;;;;;;21.70;11.87;;;;;;;-0.26;96.16;100887.31;5029226;28;20312;-73
2024/01/19 09:38:39;;;;;;;22.73;14.23;;;;;;;-0.26;95.90;100892.53;5029765;28;20206;-73
2024/01/19 09:41:18;;;;;;;20.47;13.33;;;;;;;-0.21;95.63;100897.72;5031365;28;20417;-73
2024/01/19 09:43:46;;;;;;;21.50;13.90;;;;;;;-0.22;95.52;100909.06;5028046;28;20560;-73
2024/01/19 09:46:18;;;;;;;26.67;14.50;;;;;;;-0.22;95.52;100920.41;5033493;28;20222;-73
2024/01/19 09:49:00;;;;;;;20.10;13.20;;;;;;;-0.22;95.52;100924.78;5029201;28;20233;-73
2024/01/19 09:51:39;;;;;;;21.53;14.30;;;;;;;-0.19;95.45;100924.72;5034392;28;20259;-73
2024/01/19 09:54:08;;;;;;;23.53;14.33;;;;;;;-0.14;95.30;100933.34;5033366;28;20214;-73
2024/01/19 09:56:35;;;;;;;19.97;13.50;;;;;;;-0.09;95.35;100931.53;5032117;28;20276;-73
2024/01/19 09:59:04;;;;;;;22.03;13.97;;;;;;;-0.11;95.23;100926.31;5030104;28;20206;-73
2024/01/19 10:01:32;;;;;;;22.10;14.07;;;;;;;-0.06;94.82;100923.66;5027641;28;20213;-73
2024/01/19 10:04:05;;;;;;;23.47;14.13;;;;;;;-0.04;94.70;100920.13;5026599;28;20204;-73
2024/01/19 10:06:31;;;;;;;19.97;13.43;;;;;;;-0.04;94.70;100930.59;5032398;28;20240;-73
2024/01/19 10:08:58;;;;;;;23.23;14.03;;;;;;;-0.03;94.68;100934.06;5032670;28;20210;-73
2024/01/19 10:11:26;;;;;;;19.03;12.67;;;;;;;0.04;94.67;100938.31;5035245;28;20209;-72
2024/01/19 10:13:53;;;;;;;21.17;12.27;;;;;;;0.07;94.74;100932.16;5025257;28;20225;-73
2024/01/19 10:16:19;;;;;;;21.93;13.17;;;;;;;0.14;94.45;100937.28;5028974;28;20222;-73
2024/01/19 10:18:46;;;;;;;19.13;12.57;;;;;;;0.18;94.02;100940.72;5035999;28;20199;-74
2024/01/19 10:21:14;;;;;;;23.30;12.80;;;;;;;0.22;93.92;100945.00;5030021;28;20201;-73
2024/01/19 10:23:43;;;;;;;20.53;12.73;;;;;;;0.28;93.00;100939.69;5036250;28;20199;-73
2024/01/19 10:26:14;;;;;;;17.73;11.90;;;;;;;0.30;91.80;100951.00;5032357;28;20223;-73
2024/01/19 10:28:41;;;;;;;20.67;11.80;;;;;;;0.33;92.03;100953.56;5034658;28;20471;-73
2024/01/19 10:31:15;;;;;;;20.33;12.60;;;;;;;0.31;91.42;100950.97;5030881;28;20229;-73
2024/01/19 10:33:52;;;;;;;22.20;12.33;;;;;;;0.30;91.36;100954.47;5034847;28;20233;-74
2024/01/19 10:36:20;;;;;;;18.63;10.80;;;;;;;0.32;91.27;100960.56;5032162;28;20225;-73
2024/01/19 10:38:47;;;;;;;19.57;12.00;;;;;;;0.32;91.11;100970.19;5028708;28;20305;-73
2024/01/19 10:41:18;;;;;;;19.83;12.20;;;;;;;0.34;91.47;100963.16;5036106;28;20212;-73
2024/01/19 10:43:44;;;;;;;17.17;10.30;;;;;;;0.39;91.33;100966.53;5032928;28;20194;-72
2024/01/19 10:46:20;;;;;;;18.07;12.13;;;;;;;0.38;91.27;100974.44;5029953;28;20229;-74
2024/01/19 10:48:49;;;;;;;24.40;11.50;;;;;;;0.34;91.18;100974.50;5032291;28;20252;-74
2024/01/19 10:51:17;;;;;;;21.30;11.70;;;;;;;0.37;91.24;100980.56;5032964;28;20205;-73
2024/01/19 10:53:45;;;;;;;18.93;12.53;;;;;;;0.39;91.74;100987.50;5028318;28;20705;-73
2024/01/19 10:56:18;;;;;;;24.60;11.53;;;;;;;0.43;91.42;100983.97;5035153;28;20308;-74
2024/01/19 10:58:45;;;;;;;19.77;11.57;;;;;;;0.49;91.16;100983.88;5031648;28;20209;-72
2024/01/19 11:01:15;;;;;;;22.47;12.80;;;;;;;0.48;90.56;100978.66;5036376;28;20205;-73
2024/01/19 11:03:42;;;;;;;21.10;12.17;;;;;;;0.44;90.49;100990.06;5029842;28;20277;-73
2024/01/19 11:06:09;;;;;;;24.60;12.03;;;;;;;0.37;90.75;100978.81;5032875;28;20643;-73
2024/01/19 11:08:37;;;;;;;21.40;12.03;;;;;;;0.39;90.68;100982.25;5033035;28;20206;-73
2024/01/19 11:11:06;;;;;;;22.40;11.07;;;;;;;0.40;91.13;100983.13;5035533;28;20209;-73
2024/01/19 11:13:37;;;;;;;20.63;11.67;;;;;;;0.42;91.17;100986.59;5031724;28;20242;-74
2024/01/19 11:16:11;;;;;;;22.73;10.40;;;;;;;0.44;90.81;100990.06;5029953;28;20236;-74